sensor_id;sensor_type;location;lat;lon;timestamp;pressure;altitude;pressure_sealevel;temperature;humidity
58973;BME280;44750;52.040;7.472;2023-07-20T00:01:45;100146.56;;;19.30;nan
58973;BME280;44750;52.040;7.472;2023-07-20T00:06:45;100140.34;;;19.16;nan
58973;BME280;44750;52.040;7.472;2023-07-20T00:11:50;100144.22;;;19.08;nan
58973;BME280;44750;52.040;7.472;2023-07-20T00:16:50;100131.22;;;18.97;nan
58973;BME280;44750;52.040;7.472;2023-07-20T00:21:51;100118.19;;;18.85;nan
58973;BME280;44750;52.040;7.472;2023-07-20T00:26:51;100121.63;;;18.81;nan
58973;BME280;44750;52.040;7.472;2023-07-20T00:31:51;100133.88;;;18.78;nan
58973;BME280;44750;52.040;7.472;2023-07-20T00:36:51;100106.97;;;18.62;nan
58973;BME280;44750;52.040;7.472;2023-07-20T00:41:52;100124.50;;;18.61;nan
58973;BME280;44750;52.040;7.472;2023-07-20T00:46:52;100123.69;;;18.53;nan
58973;BME280;44750;52.040;7.472;2023-07-20T00:51:52;100092.81;;;18.33;nan
58973;BME280;44750;52.040;7.472;2023-07-20T00:56:53;100069.75;;;18.09;nan
58973;BME280;44750;52.040;7.472;2023-07-20T01:01:54;100125.13;;;18.17;nan
58973;BME280;44750;52.040;7.472;2023-07-20T01:07:03;100112.94;;;18.13;nan
58973;BME280;44750;52.040;7.472;2023-07-20T01:12:13;100155.66;;;18.28;nan
58973;BME280;44750;52.040;7.472;2023-07-20T01:17:16;100165.31;;;18.37;nan
58973;BME280;44750;52.040;7.472;2023-07-20T01:33:00;100174.34;;;18.37;nan
58973;BME280;44750;52.040;7.472;2023-07-20T01:38:01;100206.09;;;18.59;nan
58973;BME280;44750;52.040;7.472;2023-07-20T01:43:02;100178.34;;;18.42;nan
58973;BME280;44750;52.040;7.472;2023-07-20T01:48:02;100192.22;;;18.47;nan
58973;BME280;44750;52.040;7.472;2023-07-20T01:53:03;100170.84;;;18.24;nan
58973;BME280;44750;52.040;7.472;2023-07-20T01:58:03;100136.59;;;17.87;nan
58973;BME280;44750;52.040;7.472;2023-07-20T02:03:03;100083.47;;;17.30;nan
58973;BME280;44750;52.040;7.472;2023-07-20T02:08:04;100069.59;;;16.98;nan
58973;BME280;44750;52.040;7.472;2023-07-20T02:13:04;100071.28;;;16.72;nan
58973;BME280;44750;52.040;7.472;2023-07-20T02:18:04;100092.28;;;16.65;nan
58973;BME280;44750;52.040;7.472;2023-07-20T02:23:05;100104.03;;;16.59;nan
58973;BME280;44750;52.040;7.472;2023-07-20T02:28:07;100118.28;;;16.47;nan
58973;BME280;44750;52.040;7.472;2023-07-20T02:33:07;100161.19;;;16.47;nan
58973;BME280;44750;52.040;7.472;2023-07-20T02:38:08;100158.63;;;16.38;nan
58973;BME280;44750;52.040;7.472;2023-07-20T02:43:08;100195.16;;;16.31;nan
58973;BME280;44750;52.040;7.472;2023-07-20T02:48:08;100211.56;;;16.37;nan
58973;BME280;44750;52.040;7.472;2023-07-20T02:53:08;100223.75;;;16.35;nan
58973;BME280;44750;52.040;7.472;2023-07-20T02:58:09;100255.47;;;16.36;nan
58973;BME280;44750;52.040;7.472;2023-07-20T03:03:09;100273.25;;;16.18;nan
58973;BME280;44750;52.040;7.472;2023-07-20T03:08:09;100291.03;;;16.08;nan
58973;BME280;44750;52.040;7.472;2023-07-20T03:13:09;100309.34;;;15.85;nan
58973;BME280;44750;52.040;7.472;2023-07-20T03:18:10;100392.00;;;16.01;nan
58973;BME280;44750;52.040;7.472;2023-07-20T03:23:10;100411.53;;;16.04;nan
58973;BME280;44750;52.040;7.472;2023-07-20T03:28:10;100443.22;;;15.99;nan
58973;BME280;44750;52.040;7.472;2023-07-20T03:33:10;100483.19;;;16.07;nan
58973;BME280;44750;52.040;7.472;2023-07-20T03:38:11;100476.38;;;15.96;nan
58973;BME280;44750;52.040;7.472;2023-07-20T03:43:11;100485.59;;;15.95;nan
58973;BME280;44750;52.040;7.472;2023-07-20T03:48:11;100511.25;;;16.00;nan
58973;BME280;44750;52.040;7.472;2023-07-20T03:53:12;100541.00;;;16.10;nan
58973;BME280;44750;52.040;7.472;2023-07-20T03:58:13;100575.19;;;16.28;nan
58973;BME280;44750;52.040;7.472;2023-07-20T04:03:14;100586.53;;;16.46;nan
58973;BME280;44750;52.040;7.472;2023-07-20T04:08:14;100562.84;;;16.32;nan
58973;BME280;44750;52.040;7.472;2023-07-20T04:13:15;100589.47;;;16.45;nan
58973;BME280;44750;52.040;7.472;2023-07-20T04:18:15;100566.22;;;16.34;nan
58973;BME280;44750;52.040;7.472;2023-07-20T04:23:15;100564.47;;;16.26;nan
58973;BME280;44750;52.040;7.472;2023-07-20T04:28:15;100589.84;;;16.42;nan
58973;BME280;44750;52.040;7.472;2023-07-20T04:33:16;100592.38;;;16.43;nan
58973;BME280;44750;52.040;7.472;2023-07-20T04:38:17;100583.91;;;16.38;nan
58973;BME280;44750;52.040;7.472;2023-07-20T04:43:17;100619.59;;;16.51;nan
58973;BME280;44750;52.040;7.472;2023-07-20T04:48:18;100695.28;;;17.16;nan
58973;BME280;44750;52.040;7.472;2023-07-20T04:53:18;100667.00;;;17.30;nan
58973;BME280;44750;52.040;7.472;2023-07-20T04:58:19;100569.41;;;16.81;nan
58973;BME280;44750;52.040;7.472;2023-07-20T05:03:19;100569.97;;;16.76;nan
58973;BME280;44750;52.040;7.472;2023-07-20T05:08:20;100579.25;;;16.82;nan
58973;BME280;44750;52.040;7.472;2023-07-20T05:13:20;100578.56;;;16.73;nan
58973;BME280;44750;52.040;7.472;2023-07-20T05:18:20;100600.03;;;16.76;nan
58973;BME280;44750;52.040;7.472;2023-07-20T05:23:21;100610.81;;;16.84;nan
58973;BME280;44750;52.040;7.472;2023-07-20T05:28:22;100628.34;;;17.12;nan
58973;BME280;44750;52.040;7.472;2023-07-20T05:33:23;100595.44;;;16.98;nan
58973;BME280;44750;52.040;7.472;2023-07-20T05:38:23;100603.47;;;17.07;nan
58973;BME280;44750;52.040;7.472;2023-07-20T05:43:23;100598.00;;;17.07;nan
58973;BME280;44750;52.040;7.472;2023-07-20T05:48:23;100567.25;;;17.04;nan
58973;BME280;44750;52.040;7.472;2023-07-20T05:53:24;100567.72;;;17.08;nan
58973;BME280;44750;52.040;7.472;2023-07-20T05:58:24;100580.91;;;17.26;nan
58973;BME280;44750;52.040;7.472;2023-07-20T06:03:24;100586.28;;;17.48;nan
58973;BME280;44750;52.040;7.472;2023-07-20T06:08:24;100561.84;;;17.40;nan
58973;BME280;44750;52.040;7.472;2023-07-20T06:13:24;100543.06;;;17.36;nan
58973;BME280;44750;52.040;7.472;2023-07-20T06:18:25;100626.19;;;18.12;nan
58973;BME280;44750;52.040;7.472;2023-07-20T06:23:25;100532.88;;;18.27;nan
58973;BME280;44750;52.040;7.472;2023-07-20T06:28:25;100516.06;;;18.50;nan
58973;BME280;44750;52.040;7.472;2023-07-20T06:33:25;100514.13;;;18.98;nan
58973;BME280;44750;52.040;7.472;2023-07-20T06:38:26;100436.59;;;19.29;nan
58973;BME280;44750;52.040;7.472;2023-07-20T06:43:26;100321.19;;;18.65;nan
58973;BME280;44750;52.040;7.472;2023-07-20T06:48:26;100326.00;;;18.83;nan
58973;BME280;44750;52.040;7.472;2023-07-20T06:53:26;100329.13;;;19.32;nan
58973;BME280;44750;52.040;7.472;2023-07-20T06:58:27;100378.78;;;19.63;nan
58973;BME280;44750;52.040;7.472;2023-07-20T07:03:27;100222.09;;;19.32;nan
58973;BME280;44750;52.040;7.472;2023-07-20T07:08:27;100126.50;;;18.40;nan
58973;BME280;44750;52.040;7.472;2023-07-20T07:13:27;100097.63;;;17.99;nan
58973;BME280;44750;52.040;7.472;2023-07-20T07:18:27;100096.16;;;17.83;nan
58973;BME280;44750;52.040;7.472;2023-07-20T07:23:28;100330.09;;;19.51;nan
58973;BME280;44750;52.040;7.472;2023-07-20T07:28:28;100218.59;;;19.50;nan
58973;BME280;44750;52.040;7.472;2023-07-20T07:33:28;100170.00;;;19.51;nan
58973;BME280;44750;52.040;7.472;2023-07-20T07:38:28;100094.06;;;19.01;nan
58973;BME280;44750;52.040;7.472;2023-07-20T07:43:29;100200.44;;;19.49;nan
58973;BME280;44750;52.040;7.472;2023-07-20T07:48:29;100251.84;;;20.48;nan
58973;BME280;44750;52.040;7.472;2023-07-20T07:53:29;100182.94;;;20.31;nan
58973;BME280;44750;52.040;7.472;2023-07-20T07:58:29;100112.63;;;19.68;nan
58973;BME280;44750;52.040;7.472;2023-07-20T08:03:30;100090.09;;;19.59;nan
58973;BME280;44750;52.040;7.472;2023-07-20T08:08:31;100137.16;;;19.63;nan
58973;BME280;44750;52.040;7.472;2023-07-20T08:13:32;100213.97;;;20.69;nan
58973;BME280;44750;52.040;7.472;2023-07-20T08:18:32;100183.66;;;20.87;nan
58973;BME280;44750;52.040;7.472;2023-07-20T08:23:32;100207.97;;;21.45;nan
58973;BME280;44750;52.040;7.472;2023-07-20T08:28:33;100170.41;;;21.74;nan
58973;BME280;44750;52.040;7.472;2023-07-20T08:33:34;100142.09;;;21.91;nan
58973;BME280;44750;52.040;7.472;2023-07-20T08:38:34;100208.31;;;22.72;nan
58973;BME280;44750;52.040;7.472;2023-07-20T08:43:37;100164.94;;;23.30;nan
58973;BME280;44750;52.040;7.472;2023-07-20T08:48:40;100172.53;;;23.74;nan
58973;BME280;44750;52.040;7.472;2023-07-20T08:53:41;100053.22;;;23.38;nan
58973;BME280;44750;52.040;7.472;2023-07-20T08:58:43;100054.81;;;23.34;nan
58973;BME280;44750;52.040;7.472;2023-07-20T09:03:44;99986.50;;;23.46;nan
58973;BME280;44750;52.040;7.472;2023-07-20T09:08:45;99929.56;;;23.45;nan
58973;BME280;44750;52.040;7.472;2023-07-20T09:13:45;99732.34;;;22.42;nan
58973;BME280;44750;52.040;7.472;2023-07-20T09:18:46;100043.34;;;23.64;nan
58973;BME280;44750;52.040;7.472;2023-07-20T09:23:49;99960.63;;;24.02;nan
58973;BME280;44750;52.040;7.472;2023-07-20T09:28:56;100078.53;;;24.41;nan
58973;BME280;44750;52.040;7.472;2023-07-20T09:33:56;99751.16;;;23.44;nan
58973;BME280;44750;52.040;7.472;2023-07-20T09:38:56;99595.69;;;22.29;nan
58973;BME280;44750;52.040;7.472;2023-07-20T09:44:00;99767.44;;;23.41;nan
58973;BME280;44750;52.040;7.472;2023-07-20T09:49:00;99931.25;;;24.28;nan
58973;BME280;44750;52.040;7.472;2023-07-20T09:54:01;99639.72;;;23.61;nan
58973;BME280;44750;52.040;7.472;2023-07-20T09:59:03;99825.97;;;23.15;nan
58973;BME280;44750;52.040;7.472;2023-07-20T10:04:05;99728.25;;;23.81;nan
58973;BME280;44750;52.040;7.472;2023-07-20T10:09:10;99545.97;;;22.74;nan
58973;BME280;44750;52.040;7.472;2023-07-20T10:14:17;99801.81;;;22.83;nan
58973;BME280;44750;52.040;7.472;2023-07-20T10:19:39;100001.31;;;24.34;nan
58973;BME280;44750;52.040;7.472;2023-07-20T10:24:45;100056.31;;;24.90;nan
58973;BME280;44750;52.040;7.472;2023-07-20T10:29:46;99783.16;;;25.06;nan
58973;BME280;44750;52.040;7.472;2023-07-20T10:34:56;99648.03;;;25.13;nan
58973;BME280;44750;52.040;7.472;2023-07-20T10:39:56;99718.47;;;25.43;nan
58973;BME280;44750;52.040;7.472;2023-07-20T10:44:56;99740.34;;;25.45;nan
58973;BME280;44750;52.040;7.472;2023-07-20T10:50:01;99594.06;;;25.31;nan
58973;BME280;44750;52.040;7.472;2023-07-20T10:55:10;99638.66;;;25.66;nan
58973;BME280;44750;52.040;7.472;2023-07-20T11:00:12;99580.31;;;26.02;nan
58973;BME280;44750;52.040;7.472;2023-07-20T11:05:32;99314.81;;;25.89;nan
58973;BME280;44750;52.040;7.472;2023-07-20T11:10:33;99062.00;;;25.33;nan
58973;BME280;44750;52.040;7.472;2023-07-20T11:20:59;99010.75;;;25.06;nan
58973;BME280;44750;52.040;7.472;2023-07-20T11:26:00;99167.25;;;25.33;nan
58973;BME280;44750;52.040;7.472;2023-07-20T11:31:01;99237.91;;;26.05;nan
58973;BME280;44750;52.040;7.472;2023-07-20T11:36:01;99088.88;;;26.15;nan
58973;BME280;44750;52.040;7.472;2023-07-20T11:41:05;98799.47;;;25.73;nan
58973;BME280;44750;52.040;7.472;2023-07-20T11:46:05;98712.31;;;25.08;nan
58973;BME280;44750;52.040;7.472;2023-07-20T11:51:05;98908.41;;;25.25;nan
58973;BME280;44750;52.040;7.472;2023-07-20T11:56:06;98770.41;;;24.89;nan
58973;BME280;44750;52.040;7.472;2023-07-20T12:01:06;98693.84;;;24.36;nan
58973;BME280;44750;52.040;7.472;2023-07-20T12:06:07;98921.47;;;24.95;nan
58973;BME280;44750;52.040;7.472;2023-07-20T12:11:08;98945.84;;;25.17;nan
58973;BME280;44750;52.040;7.472;2023-07-20T12:16:17;98946.38;;;24.66;nan
58973;BME280;44750;52.040;7.472;2023-07-20T12:21:19;99257.31;;;25.70;nan
58973;BME280;44750;52.040;7.472;2023-07-20T12:26:19;99101.38;;;25.89;nan
58973;BME280;44750;52.040;7.472;2023-07-20T12:31:20;98853.63;;;25.65;nan
58973;BME280;44750;52.040;7.472;2023-07-20T12:36:21;98631.38;;;24.97;nan
58973;BME280;44750;52.040;7.472;2023-07-20T12:41:21;98606.16;;;24.61;nan
58973;BME280;44750;52.040;7.472;2023-07-20T12:46:21;98793.81;;;25.21;nan
58973;BME280;44750;52.040;7.472;2023-07-20T12:51:22;98706.09;;;24.78;nan
58973;BME280;44750;52.040;7.472;2023-07-20T12:56:22;98748.09;;;25.04;nan
58973;BME280;44750;52.040;7.472;2023-07-20T13:01:22;98668.41;;;25.20;nan
58973;BME280;44750;52.040;7.472;2023-07-20T13:06:22;98531.72;;;24.83;nan
58973;BME280;44750;52.040;7.472;2023-07-20T13:11:23;98713.16;;;25.28;nan
58973;BME280;44750;52.040;7.472;2023-07-20T13:16:23;98387.00;;;24.31;nan
58973;BME280;44750;52.040;7.472;2023-07-20T13:21:23;98505.81;;;23.98;nan
58973;BME280;44750;52.040;7.472;2023-07-20T13:26:24;98569.44;;;23.34;nan
58973;BME280;44750;52.040;7.472;2023-07-20T13:31:24;99007.81;;;22.49;nan
58973;BME280;44750;52.040;7.472;2023-07-20T13:36:24;99070.97;;;21.87;nan
58973;BME280;44750;52.040;7.472;2023-07-20T13:41:25;99295.22;;;21.92;nan
58973;BME280;44750;52.040;7.472;2023-07-20T13:46:25;99650.78;;;22.74;nan
58973;BME280;44750;52.040;7.472;2023-07-20T13:51:32;99572.16;;;23.03;nan
58973;BME280;44750;52.040;7.472;2023-07-20T13:56:33;99533.41;;;23.26;nan
58973;BME280;44750;52.040;7.472;2023-07-20T14:01:33;99356.84;;;22.93;nan
58973;BME280;44750;52.040;7.472;2023-07-20T14:06:33;99552.44;;;22.90;nan
58973;BME280;44750;52.040;7.472;2023-07-20T14:11:33;99494.59;;;23.00;nan
58973;BME280;44750;52.040;7.472;2023-07-20T14:16:34;99682.53;;;24.01;nan
58973;BME280;44750;52.040;7.472;2023-07-20T14:21:34;99542.72;;;24.26;nan
58973;BME280;44750;52.040;7.472;2023-07-20T14:26:34;99574.00;;;24.26;nan
58973;BME280;44750;52.040;7.472;2023-07-20T14:31:34;99318.94;;;23.26;nan
58973;BME280;44750;52.040;7.472;2023-07-20T14:36:35;99591.75;;;23.82;nan
58973;BME280;44750;52.040;7.472;2023-07-20T14:41:35;99404.47;;;24.00;nan
58973;BME280;44750;52.040;7.472;2023-07-20T14:46:35;99579.78;;;24.30;nan
58973;BME280;44750;52.040;7.472;2023-07-20T14:51:35;99223.97;;;23.84;nan
58973;BME280;44750;52.040;7.472;2023-07-20T14:56:46;99345.88;;;23.93;nan
58973;BME280;44750;52.040;7.472;2023-07-20T15:01:48;99538.31;;;24.25;nan
58973;BME280;44750;52.040;7.472;2023-07-20T15:06:48;99136.47;;;23.33;nan
58973;BME280;44750;52.040;7.472;2023-07-20T15:11:48;99362.38;;;23.67;nan
58973;BME280;44750;52.040;7.472;2023-07-20T15:16:49;99393.97;;;24.12;nan
58973;BME280;44750;52.040;7.472;2023-07-20T15:21:49;99313.25;;;23.95;nan
58973;BME280;44750;52.040;7.472;2023-07-20T15:26:49;99202.72;;;23.74;nan
58973;BME280;44750;52.040;7.472;2023-07-20T15:31:49;99207.13;;;23.49;nan
58973;BME280;44750;52.040;7.472;2023-07-20T15:36:49;99260.16;;;23.41;nan
58973;BME280;44750;52.040;7.472;2023-07-20T15:41:50;99192.97;;;22.99;nan
58973;BME280;44750;52.040;7.472;2023-07-20T15:46:50;99356.34;;;23.07;nan
58973;BME280;44750;52.040;7.472;2023-07-20T15:51:50;99312.28;;;23.17;nan
58973;BME280;44750;52.040;7.472;2023-07-20T15:56:51;99559.31;;;24.26;nan
58973;BME280;44750;52.040;7.472;2023-07-20T16:01:51;99582.41;;;24.83;nan
58973;BME280;44750;52.040;7.472;2023-07-20T16:06:51;99461.22;;;24.80;nan
58973;BME280;44750;52.040;7.472;2023-07-20T16:11:51;99325.91;;;24.68;nan
58973;BME280;44750;52.040;7.472;2023-07-20T16:16:51;99027.03;;;23.68;nan
58973;BME280;44750;52.040;7.472;2023-07-20T16:21:52;99151.56;;;23.87;nan
58973;BME280;44750;52.040;7.472;2023-07-20T16:26:52;99113.75;;;23.72;nan
58973;BME280;44750;52.040;7.472;2023-07-20T16:31:52;99159.66;;;23.37;nan
58973;BME280;44750;52.040;7.472;2023-07-20T16:36:52;99313.22;;;23.84;nan
58973;BME280;44750;52.040;7.472;2023-07-20T16:41:52;99107.72;;;23.39;nan
58973;BME280;44750;52.040;7.472;2023-07-20T16:46:53;99109.09;;;23.36;nan
58973;BME280;44750;52.040;7.472;2023-07-20T16:51:53;99157.72;;;23.58;nan
58973;BME280;44750;52.040;7.472;2023-07-20T16:56:53;98933.88;;;23.13;nan
58973;BME280;44750;52.040;7.472;2023-07-20T17:01:53;99231.72;;;23.61;nan
58973;BME280;44750;52.040;7.472;2023-07-20T17:06:54;99240.00;;;23.87;nan
58973;BME280;44750;52.040;7.472;2023-07-20T17:11:54;99096.91;;;23.89;nan
58973;BME280;44750;52.040;7.472;2023-07-20T17:16:54;99204.31;;;24.16;nan
58973;BME280;44750;52.040;7.472;2023-07-20T17:21:57;99074.25;;;23.82;nan
58973;BME280;44750;52.040;7.472;2023-07-20T17:26:57;99008.50;;;23.74;nan
58973;BME280;44750;52.040;7.472;2023-07-20T17:31:57;98967.38;;;23.62;nan
58973;BME280;44750;52.040;7.472;2023-07-20T17:36:58;98919.38;;;23.52;nan
58973;BME280;44750;52.040;7.472;2023-07-20T17:41:58;99099.41;;;23.70;nan
58973;BME280;44750;52.040;7.472;2023-07-20T17:46:58;98984.03;;;23.41;nan
58973;BME280;44750;52.040;7.472;2023-07-20T17:51:59;99008.59;;;23.48;nan
58973;BME280;44750;52.040;7.472;2023-07-20T17:57:00;98861.81;;;23.15;nan
58973;BME280;44750;52.040;7.472;2023-07-20T18:02:00;98996.25;;;23.14;nan
58973;BME280;44750;52.040;7.472;2023-07-20T18:07:00;99000.09;;;23.13;nan
58973;BME280;44750;52.040;7.472;2023-07-20T18:12:00;99040.41;;;23.25;nan
58973;BME280;44750;52.040;7.472;2023-07-20T18:17:01;99083.72;;;23.34;nan
58973;BME280;44750;52.040;7.472;2023-07-20T18:22:01;99059.69;;;23.35;nan
58973;BME280;44750;52.040;7.472;2023-07-20T18:27:01;99065.22;;;23.30;nan
58973;BME280;44750;52.040;7.472;2023-07-20T18:32:01;99025.50;;;23.15;nan
58973;BME280;44750;52.040;7.472;2023-07-20T18:37:02;98987.41;;;22.97;nan
58973;BME280;44750;52.040;7.472;2023-07-20T18:42:02;98919.84;;;22.68;nan
58973;BME280;44750;52.040;7.472;2023-07-20T18:47:03;99032.38;;;22.71;nan
58973;BME280;44750;52.040;7.472;2023-07-20T18:52:04;99013.91;;;22.57;nan
58973;BME280;44750;52.040;7.472;2023-07-20T18:57:05;99085.03;;;22.54;nan
58973;BME280;44750;52.040;7.472;2023-07-20T19:02:05;99209.72;;;22.72;nan
58973;BME280;44750;52.040;7.472;2023-07-20T19:07:05;99193.72;;;22.69;nan
58973;BME280;44750;52.040;7.472;2023-07-20T19:12:06;99212.19;;;22.68;nan
58973;BME280;44750;52.040;7.472;2023-07-20T19:17:07;99257.69;;;22.71;nan
58973;BME280;44750;52.040;7.472;2023-07-20T19:22:07;99258.19;;;22.58;nan
58973;BME280;44750;52.040;7.472;2023-07-20T19:27:34;99287.41;;;22.53;nan
58973;BME280;44750;52.040;7.472;2023-07-20T19:32:35;99271.34;;;22.40;nan
58973;BME280;44750;52.040;7.472;2023-07-20T19:37:35;99328.72;;;22.43;nan
58973;BME280;44750;52.040;7.472;2023-07-20T19:42:35;99301.63;;;22.35;nan
58973;BME280;44750;52.040;7.472;2023-07-20T19:47:35;99320.59;;;22.31;nan
58973;BME280;44750;52.040;7.472;2023-07-20T19:52:35;99353.50;;;22.11;nan
58973;BME280;44750;52.040;7.472;2023-07-20T19:57:36;99463.41;;;22.07;nan
58973;BME280;44750;52.040;7.472;2023-07-20T20:02:37;99552.50;;;22.13;nan
58973;BME280;44750;52.040;7.472;2023-07-20T20:07:40;99480.16;;;22.00;nan
58973;BME280;44750;52.040;7.472;2023-07-20T20:12:40;99414.19;;;21.61;nan
58973;BME280;44750;52.040;7.472;2023-07-20T20:17:41;99511.56;;;21.55;nan
58973;BME280;44750;52.040;7.472;2023-07-20T20:22:41;99566.78;;;21.65;nan
58973;BME280;44750;52.040;7.472;2023-07-20T20:27:41;99594.06;;;21.67;nan
58973;BME280;44750;52.040;7.472;2023-07-20T20:32:41;99609.34;;;21.58;nan
58973;BME280;44750;52.040;7.472;2023-07-20T20:37:42;99588.25;;;21.29;nan
58973;BME280;44750;52.040;7.472;2023-07-20T20:42:42;99625.19;;;21.16;nan
58973;BME280;44750;52.040;7.472;2023-07-20T20:47:42;99620.53;;;21.00;nan
58973;BME280;44750;52.040;7.472;2023-07-20T20:52:42;99614.69;;;20.79;nan
58973;BME280;44750;52.040;7.472;2023-07-20T20:57:45;99653.66;;;20.76;nan
58973;BME280;44750;52.040;7.472;2023-07-20T21:02:45;99697.41;;;20.78;nan
58973;BME280;44750;52.040;7.472;2023-07-20T21:07:46;99684.28;;;20.68;nan
58973;BME280;44750;52.040;7.472;2023-07-20T21:12:46;99691.25;;;20.59;nan
58973;BME280;44750;52.040;7.472;2023-07-20T21:17:46;99716.50;;;20.44;nan
58973;BME280;44750;52.040;7.472;2023-07-20T21:22:47;99689.78;;;20.27;nan
58973;BME280;44750;52.040;7.472;2023-07-20T21:27:47;99745.84;;;20.14;nan
58973;BME280;44750;52.040;7.472;2023-07-20T21:32:48;99793.50;;;20.20;nan
58973;BME280;44750;52.040;7.472;2023-07-20T21:37:49;99779.88;;;20.01;nan
58973;BME280;44750;52.040;7.472;2023-07-20T21:42:49;99768.13;;;19.70;nan
58973;BME280;44750;52.040;7.472;2023-07-20T21:47:49;99771.31;;;19.55;nan
58973;BME280;44750;52.040;7.472;2023-07-20T21:52:49;99814.97;;;19.45;nan
58973;BME280;44750;52.040;7.472;2023-07-20T21:57:50;99839.94;;;19.55;nan
58973;BME280;44750;52.040;7.472;2023-07-20T22:02:51;99813.75;;;19.41;nan
58973;BME280;44750;52.040;7.472;2023-07-20T22:07:51;99799.66;;;19.07;nan
58973;BME280;44750;52.040;7.472;2023-07-20T22:12:51;99785.53;;;18.73;nan
58973;BME280;44750;52.040;7.472;2023-07-20T22:17:51;99761.13;;;18.09;nan
58973;BME280;44750;52.040;7.472;2023-07-20T22:22:52;99686.97;;;17.42;nan
58973;BME280;44750;52.040;7.472;2023-07-20T22:27:52;99716.94;;;17.55;nan
58973;BME280;44750;52.040;7.472;2023-07-20T22:32:52;99718.75;;;17.68;nan
58973;BME280;44750;52.040;7.472;2023-07-20T22:37:52;99724.50;;;17.60;nan
58973;BME280;44750;52.040;7.472;2023-07-20T22:42:52;99709.16;;;17.59;nan
58973;BME280;44750;52.040;7.472;2023-07-20T22:47:53;99728.94;;;17.61;nan
58973;BME280;44750;52.040;7.472;2023-07-20T22:52:53;99737.50;;;17.64;nan
58973;BME280;44750;52.040;7.472;2023-07-20T22:57:53;99757.50;;;17.65;nan
58973;BME280;44750;52.040;7.472;2023-07-20T23:02:57;99770.56;;;17.63;nan
58973;BME280;44750;52.040;7.472;2023-07-20T23:07:57;99773.75;;;17.60;nan
58973;BME280;44750;52.040;7.472;2023-07-20T23:12:57;99777.78;;;17.57;nan
58973;BME280;44750;52.040;7.472;2023-07-20T23:17:57;99806.97;;;17.63;nan
58973;BME280;44750;52.040;7.472;2023-07-20T23:22:58;99793.16;;;17.58;nan
58973;BME280;44750;52.040;7.472;2023-07-20T23:27:58;99810.44;;;17.52;nan
58973;BME280;44750;52.040;7.472;2023-07-20T23:32:58;99827.47;;;17.54;nan
58973;BME280;44750;52.040;7.472;2023-07-20T23:37:59;99835.28;;;17.50;nan
58973;BME280;44750;52.040;7.472;2023-07-20T23:42:59;99842.22;;;17.53;nan
58973;BME280;44750;52.040;7.472;2023-07-20T23:47:59;99833.88;;;17.41;nan
58973;BME280;44750;52.040;7.472;2023-07-20T23:53:06;99864.50;;;17.57;nan
58973;BME280;44750;52.040;7.472;2023-07-20T23:58:06;99826.25;;;17.43;nan
